Time;durP1;ratioP1;P1;durP2;ratioP2;P2;SDS_P1;SDS_P2;PMS_P1;PMS_P2;Temp;Humidity;BMP_temperature;BMP_pressure;BME280_temperature;BME280_humidity;BME280_pressure;Samples;Min_cycle;Max_cycle;Signal;HPM_P1;HPM_P2
2022/05/06 00:00:18;;;;;;;53.67;38.27;;;;;;;;;;5055805;28;20209;-63
2022/05/06 00:02:46;;;;;;;66.30;43.77;;;;;;;;;;5059870;28;20300;-64
2022/05/06 00:05:13;;;;;;;48.97;37.50;;;;;;;;;;5062715;28;20212;-63
2022/05/06 00:07:41;;;;;;;52.43;36.27;;;;;;;;;;5081635;28;20365;-64
2022/05/06 00:10:09;;;;;;;49.00;35.00;;;;;;;;;;5061725;28;20262;-64
2022/05/06 00:12:37;;;;;;;46.00;33.97;;;;;;;;;;5059919;28;20233;-65
2022/05/06 00:15:07;;;;;;;42.90;33.70;;;;;;;;;;5061736;28;20201;-65
2022/05/06 00:17:35;;;;;;;45.30;33.90;;;;;;;;;;5075478;28;20216;-63
2022/05/06 00:20:04;;;;;;;42.77;32.83;;;;;;;;;;5063525;28;20216;-64
2022/05/06 00:22:31;;;;;;;46.83;33.53;;;;;;;;;;5060327;28;20259;-63
2022/05/06 00:24:58;;;;;;;41.03;31.77;;;;;;;;;;5063471;28;20247;-64
2022/05/06 00:27:26;;;;;;;47.53;34.97;;;;;;;;;;5055283;28;20231;-63
2022/05/06 00:29:53;;;;;;;47.63;35.10;;;;;;;;;;5054416;28;20630;-64
2022/05/06 00:32:21;;;;;;;45.30;33.53;;;;;;;;;;5064021;28;20228;-64
2022/05/06 00:34:48;;;;;;;45.93;33.67;;;;;;;;;;5055525;28;20231;-64
2022/05/06 00:37:15;;;;;;;46.37;33.00;;;;;;;;;;5055890;28;20217;-63
2022/05/06 00:39:43;;;;;;;47.10;34.83;;;;;;;;;;5062676;28;20197;-64
2022/05/06 00:42:10;;;;;;;47.83;34.90;;;;;;;;;;5048533;28;20269;-63
2022/05/06 00:44:38;;;;;;;49.40;35.07;;;;;;;;;;5053220;28;20317;-64
2022/05/06 00:47:05;;;;;;;44.20;35.00;;;;;;;;;;5062144;28;20643;-64
2022/05/06 00:49:33;;;;;;;47.23;34.27;;;;;;;;;;5075972;28;20314;-64
2022/05/06 00:52:03;;;;;;;43.67;32.20;;;;;;;;;;5058334;28;20212;-63
2022/05/06 00:54:37;;;;;;;49.90;34.43;;;;;;;;;;5060814;28;20667;-64
2022/05/06 00:57:05;;;;;;;47.87;33.10;;;;;;;;;;5058818;28;20722;-64
2022/05/06 00:59:32;;;;;;;43.33;33.40;;;;;;;;;;5057795;28;20197;-63
2022/05/06 01:02:00;;;;;;;42.53;33.03;;;;;;;;;;5084911;28;20232;-64
2022/05/06 01:04:28;;;;;;;47.33;32.87;;;;;;;;;;5070592;28;20212;-64
2022/05/06 01:06:56;;;;;;;49.10;34.10;;;;;;;;;;5052948;28;20227;-64
2022/05/06 01:09:23;;;;;;;43.83;32.13;;;;;;;;;;5056558;28;20213;-62
2022/05/06 01:11:52;;;;;;;45.50;33.10;;;;;;;;;;5050398;28;20204;-63
2022/05/06 01:14:33;;;;;;;49.03;34.23;;;;;;;;;;5055886;28;20232;-64
2022/05/06 01:17:01;;;;;;;52.00;33.83;;;;;;;;;;5059659;28;20224;-64
2022/05/06 01:19:29;;;;;;;55.47;36.80;;;;;;;;;;5052595;28;20647;-63
2022/05/06 01:21:57;;;;;;;48.03;35.07;;;;;;;;;;5062160;28;20218;-64
2022/05/06 01:24:25;;;;;;;66.00;41.23;;;;;;;;;;5071667;28;20201;-63
2022/05/06 01:26:56;;;;;;;51.80;35.57;;;;;;;;;;5060297;28;20248;-63
2022/05/06 01:29:23;;;;;;;53.30;36.87;;;;;;;;;;5057915;28;20254;-63
2022/05/06 01:31:51;;;;;;;48.57;34.63;;;;;;;;;;5056322;28;20758;-63
2022/05/06 01:34:19;;;;;;;53.20;35.77;;;;;;;;;;5058342;28;20295;-61
2022/05/06 01:36:51;;;;;;;55.07;35.87;;;;;;;;;;5050770;28;23606;-63
2022/05/06 01:39:22;;;;;;;51.97;36.63;;;;;;;;;;5065390;28;20302;-64
2022/05/06 01:41:52;;;;;;;53.50;36.20;;;;;;;;;;5050080;28;20193;-63
2022/05/06 01:44:21;;;;;;;50.27;36.40;;;;;;;;;;5053837;28;20224;-63
2022/05/06 01:46:48;;;;;;;53.50;37.07;;;;;;;;;;5063433;28;20281;-63
2022/05/06 01:49:17;;;;;;;57.03;38.03;;;;;;;;;;5056345;28;20205;-63
2022/05/06 01:51:45;;;;;;;58.07;39.03;;;;;;;;;;5063158;28;20292;-63
2022/05/06 01:54:13;;;;;;;61.53;42.03;;;;;;;;;;5057551;28;20220;-64
2022/05/06 01:56:44;;;;;;;60.07;37.37;;;;;;;;;;5059255;28;20306;-62
2022/05/06 01:59:12;;;;;;;54.43;36.90;;;;;;;;;;5068352;28;20297;-63
2022/05/06 02:01:39;;;;;;;60.03;37.50;;;;;;;;;;5061202;28;20205;-63
2022/05/06 02:06:53;;;;;;;59.73;39.70;;;;;;;;;;5072201;28;20277;-64
2022/05/06 02:09:20;;;;;;;57.73;37.13;;;;;;;;;;5061495;28;20685;-62
2022/05/06 02:11:48;;;;;;;54.43;37.57;;;;;;;;;;5046790;28;20205;-62
2022/05/06 02:14:16;;;;;;;56.07;37.13;;;;;;;;;;5057043;28;20229;-63
2022/05/06 02:16:49;;;;;;;51.63;36.77;;;;;;;;;;5061514;28;20224;-62
2022/05/06 02:19:16;;;;;;;55.60;37.47;;;;;;;;;;5059383;28;20208;-63
2022/05/06 02:21:43;;;;;;;61.13;39.23;;;;;;;;;;5056207;28;22147;-63
2022/05/06 02:24:12;;;;;;;56.93;37.07;;;;;;;;;;5045528;28;20217;-64
2022/05/06 02:26:39;;;;;;;53.70;37.03;;;;;;;;;;5052596;28;20225;-62
2022/05/06 02:29:07;;;;;;;55.90;37.20;;;;;;;;;;5057191;28;20265;-65
2022/05/06 02:34:20;;;;;;;56.73;37.70;;;;;;;;;;5078075;28;20311;-64
2022/05/06 02:36:48;;;;;;;61.60;38.60;;;;;;;;;;5057628;28;20704;-65
2022/05/06 02:39:15;;;;;;;58.00;38.40;;;;;;;;;;5075667;28;20209;-62
2022/05/06 02:41:44;;;;;;;58.80;38.97;;;;;;;;;;5065441;28;20209;-61
2022/05/06 02:44:13;;;;;;;60.97;39.97;;;;;;;;;;5074935;28;20204;-64
2022/05/06 02:46:40;;;;;;;64.30;40.17;;;;;;;;;;5062999;28;20273;-63
2022/05/06 02:49:08;;;;;;;63.03;40.87;;;;;;;;;;5063504;28;20300;-64
2022/05/06 02:51:35;;;;;;;68.93;40.83;;;;;;;;;;5059367;28;20208;-65
2022/05/06 02:54:02;;;;;;;64.40;41.20;;;;;;;;;;5060582;28;20239;-64
2022/05/06 02:56:30;;;;;;;65.03;42.07;;;;;;;;;;5060391;28;20739;-62
2022/05/06 02:58:58;;;;;;;61.27;40.40;;;;;;;;;;5063664;28;20197;-64
2022/05/06 03:01:25;;;;;;;65.70;41.93;;;;;;;;;;5059059;28;20808;-65
2022/05/06 03:03:52;;;;;;;63.93;41.97;;;;;;;;;;5059354;28;20229;-63
2022/05/06 03:06:20;;;;;;;67.30;42.27;;;;;;;;;;5076790;28;20220;-63
2022/05/06 03:08:47;;;;;;;63.60;40.53;;;;;;;;;;5061853;28;20240;-63
2022/05/06 03:11:15;;;;;;;72.13;42.93;;;;;;;;;;5056341;28;20269;-63
2022/05/06 03:13:42;;;;;;;72.77;41.87;;;;;;;;;;5052211;28;20325;-64
2022/05/06 03:16:09;;;;;;;64.10;41.33;;;;;;;;;;5078688;28;20205;-63
2022/05/06 03:18:37;;;;;;;68.47;42.97;;;;;;;;;;5077151;28;20220;-65
2022/05/06 03:21:04;;;;;;;68.00;42.43;;;;;;;;;;5055830;28;20204;-63
2022/05/06 03:23:33;;;;;;;66.57;42.03;;;;;;;;;;5058469;28;20208;-62
2022/05/06 03:26:18;;;;;;;71.23;42.70;;;;;;;;;;5092556;28;20200;-63
2022/05/06 03:28:46;;;;;;;66.53;41.40;;;;;;;;;;5081838;28;20678;-64
2022/05/06 03:31:13;;;;;;;65.70;41.20;;;;;;;;;;5059182;28;20206;-64
2022/05/06 03:33:42;;;;;;;66.30;41.27;;;;;;;;;;5061153;28;20248;-64
2022/05/06 03:36:09;;;;;;;61.13;40.70;;;;;;;;;;5069741;28;20221;-65
2022/05/06 03:38:37;;;;;;;61.30;41.37;;;;;;;;;;5051706;28;20220;-63
2022/05/06 03:41:06;;;;;;;62.70;40.73;;;;;;;;;;5061038;28;20251;-64
2022/05/06 03:43:34;;;;;;;64.37;39.80;;;;;;;;;;5074997;28;20200;-65
2022/05/06 03:46:01;;;;;;;67.27;42.70;;;;;;;;;;5059265;28;20204;-64
2022/05/06 03:48:29;;;;;;;62.63;40.23;;;;;;;;;;5056282;28;22461;-65
2022/05/06 03:53:42;;;;;;;63.17;40.13;;;;;;;;;;5074399;28;20273;-64
2022/05/06 03:56:12;;;;;;;64.63;40.80;;;;;;;;;;5057113;28;20679;-63
2022/05/06 03:58:40;;;;;;;56.63;39.63;;;;;;;;;;5074546;28;20209;-64
2022/05/06 04:01:07;;;;;;;60.07;38.80;;;;;;;;;;5069775;28;20213;-64
2022/05/06 04:03:35;;;;;;;60.83;38.13;;;;;;;;;;5059447;28;20570;-63
2022/05/06 04:06:02;;;;;;;61.73;41.27;;;;;;;;;;5059547;28;20209;-63
2022/05/06 04:08:31;;;;;;;56.47;39.77;;;;;;;;;;5065686;28;20225;-63
2022/05/06 04:10:59;;;;;;;63.87;42.60;;;;;;;;;;5059996;28;20204;-63
2022/05/06 04:13:26;;;;;;;62.10;39.27;;;;;;;;;;5058642;28;20719;-64
2022/05/06 04:15:53;;;;;;;65.67;41.97;;;;;;;;;;5055228;28;20252;-63
2022/05/06 04:18:21;;;;;;;57.87;40.43;;;;;;;;;;5063496;28;20710;-63
2022/05/06 04:23:35;;;;;;;65.63;42.73;;;;;;;;;;5077551;28;20209;-64
2022/05/06 04:26:04;;;;;;;72.53;44.63;;;;;;;;;;5050026;28;21345;-63
2022/05/06 04:28:31;;;;;;;158.47;96.60;;;;;;;;;;5062250;28;21951;-64
2022/05/06 04:30:59;;;;;;;62.53;42.50;;;;;;;;;;5055489;28;20209;-64
2022/05/06 04:33:27;;;;;;;70.43;44.13;;;;;;;;;;5060122;28;20319;-63
2022/05/06 04:35:56;;;;;;;64.53;43.17;;;;;;;;;;5073078;28;20710;-64
2022/05/06 04:38:24;;;;;;;59.70;42.10;;;;;;;;;;5078418;28;20217;-62
2022/05/06 04:40:53;;;;;;;61.53;40.53;;;;;;;;;;5058671;28;20208;-65
2022/05/06 04:43:21;;;;;;;58.90;42.30;;;;;;;;;;5062115;28;20209;-65
2022/05/06 04:45:49;;;;;;;64.27;41.40;;;;;;;;;;5056416;28;20228;-64
2022/05/06 04:48:16;;;;;;;62.30;42.40;;;;;;;;;;5063718;28;20775;-65
2022/05/06 04:50:44;;;;;;;58.07;40.70;;;;;;;;;;5064734;28;20468;-63
2022/05/06 04:53:12;;;;;;;62.53;43.20;;;;;;;;;;5064803;28;20266;-64
2022/05/06 04:55:48;;;;;;;64.47;42.70;;;;;;;;;;5061726;28;20258;-64
2022/05/06 04:58:16;;;;;;;64.17;41.77;;;;;;;;;;5062174;28;20220;-64
2022/05/06 05:00:43;;;;;;;61.50;42.30;;;;;;;;;;5065903;28;20193;-64
2022/05/06 05:03:11;;;;;;;63.40;43.00;;;;;;;;;;5064619;28;20702;-64
2022/05/06 05:05:39;;;;;;;67.53;45.97;;;;;;;;;;5056048;28;20201;-64
2022/05/06 05:08:08;;;;;;;66.23;44.20;;;;;;;;;;5062278;28;20220;-64
2022/05/06 05:10:37;;;;;;;61.40;42.50;;;;;;;;;;5085421;28;20219;-64
2022/05/06 05:13:05;;;;;;;61.13;43.17;;;;;;;;;;5073543;28;20219;-64
2022/05/06 05:15:32;;;;;;;61.63;41.57;;;;;;;;;;5067512;28;20532;-64
2022/05/06 05:18:00;;;;;;;61.90;41.73;;;;;;;;;;5077140;28;20233;-64
2022/05/06 05:20:27;;;;;;;57.07;41.50;;;;;;;;;;5069047;28;20240;-64
2022/05/06 05:22:55;;;;;;;54.03;40.27;;;;;;;;;;5060717;28;20276;-64
2022/05/06 05:25:22;;;;;;;53.73;40.47;;;;;;;;;;5062356;28;20785;-64
2022/05/06 05:27:50;;;;;;;62.27;41.67;;;;;;;;;;5057471;28;20225;-64
2022/05/06 05:30:17;;;;;;;54.93;40.43;;;;;;;;;;5061522;28;20402;-64
2022/05/06 05:32:45;;;;;;;61.90;42.63;;;;;;;;;;5057723;28;20220;-62
2022/05/06 05:35:12;;;;;;;51.10;38.07;;;;;;;;;;5060685;28;20232;-65
2022/05/06 05:37:39;;;;;;;56.70;39.47;;;;;;;;;;5063863;28;20299;-64
2022/05/06 05:40:07;;;;;;;51.97;39.20;;;;;;;;;;5062410;28;20205;-63
2022/05/06 05:42:34;;;;;;;47.37;37.07;;;;;;;;;;5046333;28;20197;-64
2022/05/06 05:50:44;;;;;;;49.50;38.13;;;;;;;;;;5088171;28;20209;-64
2022/05/06 05:53:11;;;;;;;49.60;37.07;;;;;;;;;;5065872;28;20821;-64
2022/05/06 05:55:39;;;;;;;48.97;36.53;;;;;;;;;;5080048;28;20235;-63
2022/05/06 05:58:07;;;;;;;50.23;36.60;;;;;;;;;;5079800;28;20221;-63
2022/05/06 06:00:34;;;;;;;48.50;37.60;;;;;;;;;;5061793;28;20208;-64
2022/05/06 06:03:02;;;;;;;47.00;36.40;;;;;;;;;;5062755;28;20208;-65
2022/05/06 06:05:29;;;;;;;49.87;36.60;;;;;;;;;;5060329;28;20209;-65
2022/05/06 06:07:56;;;;;;;48.17;37.73;;;;;;;;;;5074173;28;20229;-64
2022/05/06 06:10:24;;;;;;;47.43;36.40;;;;;;;;;;5071091;28;20748;-64
2022/05/06 06:12:56;;;;;;;46.80;35.83;;;;;;;;;;5065174;28;20205;-65
2022/05/06 06:15:24;;;;;;;46.57;35.97;;;;;;;;;;5077855;28;20281;-64
2022/05/06 06:17:51;;;;;;;43.33;34.67;;;;;;;;;;5061572;28;20250;-65
2022/05/06 06:20:21;;;;;;;47.77;35.57;;;;;;;;;;5060197;28;20228;-64
2022/05/06 06:22:49;;;;;;;46.33;34.93;;;;;;;;;;5059261;28;20223;-64
2022/05/06 06:25:16;;;;;;;44.27;34.50;;;;;;;;;;5060386;28;20248;-64
2022/05/06 06:27:46;;;;;;;42.50;33.93;;;;;;;;;;5062552;28;20220;-64
2022/05/06 06:30:14;;;;;;;40.80;33.57;;;;;;;;;;5064693;28;20208;-64
2022/05/06 06:32:51;;;;;;;43.53;33.23;;;;;;;;;;5064082;28;20236;-64
2022/05/06 06:35:19;;;;;;;39.37;32.40;;;;;;;;;;5062385;28;20228;-65
2022/05/06 06:37:47;;;;;;;35.70;29.77;;;;;;;;;;5055224;28;22117;-65
2022/05/06 06:40:14;;;;;;;42.97;33.63;;;;;;;;;;5057528;28;20197;-65
2022/05/06 06:42:44;;;;;;;37.60;31.33;;;;;;;;;;5055410;28;20589;-65
2022/05/06 06:45:12;;;;;;;41.53;35.50;;;;;;;;;;5064762;28;20217;-64
2022/05/06 06:47:39;;;;;;;35.70;30.83;;;;;;;;;;5072248;28;20235;-65
2022/05/06 06:50:07;;;;;;;37.40;30.90;;;;;;;;;;5061801;28;20205;-64
2022/05/06 06:52:34;;;;;;;39.30;30.70;;;;;;;;;;5052131;28;20365;-64
2022/05/06 06:55:02;;;;;;;37.03;29.13;;;;;;;;;;5051315;28;20232;-65
2022/05/06 06:57:32;;;;;;;35.63;31.70;;;;;;;;;;5062888;28;20231;-64
2022/05/06 06:59:59;;;;;;;33.80;28.10;;;;;;;;;;5058569;28;20201;-65
2022/05/06 07:02:28;;;;;;;33.77;28.80;;;;;;;;;;5070910;28;20604;-64
2022/05/06 07:04:57;;;;;;;32.63;28.17;;;;;;;;;;5044801;28;20209;-65
2022/05/06 07:13:17;;;;;;;34.30;28.73;;;;;;;;;;5061853;28;20208;-64
2022/05/06 07:15:45;;;;;;;35.13;27.80;;;;;;;;;;5050092;28;20233;-63
2022/05/06 07:18:12;;;;;;;37.00;28.17;;;;;;;;;;5075373;28;20976;-65
2022/05/06 07:20:41;;;;;;;32.00;28.23;;;;;;;;;;5065229;28;20254;-64
2022/05/06 07:23:10;;;;;;;32.40;26.97;;;;;;;;;;5066421;28;20197;-65
2022/05/06 07:25:38;;;;;;;32.03;26.20;;;;;;;;;;5069268;28;20211;-65
2022/05/06 07:28:06;;;;;;;33.80;28.17;;;;;;;;;;5068177;28;20240;-64
2022/05/06 07:30:33;;;;;;;32.23;26.57;;;;;;;;;;5065880;28;20235;-62
2022/05/06 07:33:00;;;;;;;33.20;27.40;;;;;;;;;;5065022;28;20219;-65
2022/05/06 07:35:29;;;;;;;31.67;26.17;;;;;;;;;;5068841;28;20270;-64
2022/05/06 07:37:56;;;;;;;29.10;25.77;;;;;;;;;;5069271;28;20354;-63
2022/05/06 07:40:23;;;;;;;30.87;25.13;;;;;;;;;;5064091;28;20686;-64
2022/05/06 07:42:51;;;;;;;31.23;24.80;;;;;;;;;;5077695;28;20550;-64
2022/05/06 07:45:20;;;;;;;30.13;26.10;;;;;;;;;;5067871;28;20655;-63
2022/05/06 07:47:50;;;;;;;31.43;24.87;;;;;;;;;;5067775;28;20261;-64
2022/05/06 07:50:26;;;;;;;33.47;25.70;;;;;;;;;;5058871;28;20206;-63
2022/05/06 07:52:55;;;;;;;27.97;24.07;;;;;;;;;;5075842;28;20210;-64
2022/05/06 07:55:22;;;;;;;29.60;23.63;;;;;;;;;;5053684;28;20220;-62
2022/05/06 07:57:50;;;;;;;27.30;23.30;;;;;;;;;;5054258;28;20221;-64
2022/05/06 08:00:24;;;;;;;26.13;23.00;;;;;;;;;;5049380;28;20555;-63
2022/05/06 08:05:39;;;;;;;24.40;21.83;;;;;;;;;;5074356;28;20655;-64
2022/05/06 08:08:06;;;;;;;25.80;21.47;;;;;;;;;;5058418;28;20228;-64
2022/05/06 08:10:33;;;;;;;28.07;22.17;;;;;;;;;;5074453;28;20213;-64
2022/05/06 08:13:05;;;;;;;22.30;19.37;;;;;;;;;;5060232;28;20222;-64
2022/05/06 08:15:33;;;;;;;22.53;19.97;;;;;;;;;;5057484;28;20232;-63
2022/05/06 08:18:00;;;;;;;23.83;19.73;;;;;;;;;;5054748;28;20766;-64
2022/05/06 08:20:27;;;;;;;21.80;19.60;;;;;;;;;;5058237;28;20317;-64
2022/05/06 08:22:55;;;;;;;25.20;20.60;;;;;;;;;;5057032;28;20221;-64
2022/05/06 08:25:22;;;;;;;24.27;19.30;;;;;;;;;;5051619;28;20200;-64
2022/05/06 08:28:01;;;;;;;20.27;18.17;;;;;;;;;;5054647;28;20287;-64
2022/05/06 08:30:28;;;;;;;21.57;19.33;;;;;;;;;;5055335;28;20231;-64
2022/05/06 08:32:56;;;;;;;21.00;18.27;;;;;;;;;;5057647;28;20205;-64
2022/05/06 08:35:24;;;;;;;21.57;17.97;;;;;;;;;;5054330;28;20229;-64
2022/05/06 08:37:52;;;;;;;18.20;16.20;;;;;;;;;;5059415;28;20555;-64
2022/05/06 08:40:20;;;;;;;18.87;16.83;;;;;;;;;;5058665;28;20705;-64
2022/05/06 08:42:48;;;;;;;20.87;17.23;;;;;;;;;;5075962;28;20204;-64
2022/05/06 08:50:53;;;;;;;18.80;16.83;;;;;;;;;;5071485;28;20209;-65
2022/05/06 08:53:25;;;;;;;18.93;17.03;;;;;;;;;;5061023;28;20197;-64
2022/05/06 08:55:57;;;;;;;18.70;16.70;;;;;;;;;;5056202;28;20236;-64
2022/05/06 08:58:25;;;;;;;21.73;18.00;;;;;;;;;;5052316;28;20227;-64
2022/05/06 09:01:04;;;;;;;19.93;17.50;;;;;;;;;;5059370;28;20248;-64
2022/05/06 09:03:32;;;;;;;20.03;16.70;;;;;;;;;;5056039;28;20208;-65
2022/05/06 09:06:01;;;;;;;19.00;17.03;;;;;;;;;;5056577;28;20205;-63
2022/05/06 09:08:38;;;;;;;19.50;17.40;;;;;;;;;;5075459;28;20377;-65
2022/05/06 09:11:09;;;;;;;20.70;17.67;;;;;;;;;;5061335;28;20216;-63
2022/05/06 09:13:37;;;;;;;18.63;16.73;;;;;;;;;;5077018;28;20205;-64
2022/05/06 09:19:13;;;;;;;17.73;15.87;;;;;;;;;;5074796;28;20894;-65
2022/05/06 09:21:41;;;;;;;20.20;16.10;;;;;;;;;;5054931;28;20938;-64
2022/05/06 09:24:19;;;;;;;19.13;16.00;;;;;;;;;;5059122;28;20291;-64
2022/05/06 09:27:00;;;;;;;19.47;15.97;;;;;;;;;;5076052;28;21154;-65
2022/05/06 09:29:31;;;;;;;20.20;17.40;;;;;;;;;;5064499;28;20204;-64
2022/05/06 09:32:14;;;;;;;18.70;16.80;;;;;;;;;;5053830;28;20208;-64
2022/05/06 09:34:41;;;;;;;18.03;16.17;;;;;;;;;;5076539;28;20233;-65
2022/05/06 09:37:09;;;;;;;17.93;16.13;;;;;;;;;;5082595;28;20230;-63
2022/05/06 09:39:40;;;;;;;18.87;16.87;;;;;;;;;;5059487;28;20240;-64
2022/05/06 09:42:07;;;;;;;18.03;15.17;;;;;;;;;;5061033;28;20224;-65
2022/05/06 09:44:35;;;;;;;17.87;16.00;;;;;;;;;;5058881;28;20197;-65
2022/05/06 09:47:11;;;;;;;16.73;15.03;;;;;;;;;;5077499;28;21277;-65
2022/05/06 09:49:45;;;;;;;18.93;15.20;;;;;;;;;;5061510;28;20731;-64
2022/05/06 09:52:13;;;;;;;18.93;15.63;;;;;;;;;;5065685;28;20197;-64
2022/05/06 09:54:41;;;;;;;16.67;14.77;;;;;;;;;;5070612;28;20209;-65
2022/05/06 09:57:13;;;;;;;17.70;15.80;;;;;;;;;;5070248;28;20226;-64
2022/05/06 09:59:40;;;;;;;19.10;15.77;;;;;;;;;;5082467;28;20209;-65
2022/05/06 10:02:10;;;;;;;16.87;15.07;;;;;;;;;;5105510;28;20197;-65
2022/05/06 10:04:38;;;;;;;16.73;15.00;;;;;;;;;;5055978;28;20203;-64
2022/05/06 10:07:14;;;;;;;17.47;15.60;;;;;;;;;;5054714;28;20225;-64
2022/05/06 10:09:42;;;;;;;16.73;15.03;;;;;;;;;;5056533;28;20262;-64
2022/05/06 10:12:11;;;;;;;16.73;14.40;;;;;;;;;;5059999;28;20295;-64
2022/05/06 10:14:40;;;;;;;16.20;14.50;;;;;;;;;;5058356;28;20215;-64
2022/05/06 10:17:09;;;;;;;16.07;14.37;;;;;;;;;;5059928;28;20221;-65
2022/05/06 10:19:36;;;;;;;16.83;14.87;;;;;;;;;;5050733;28;20901;-64
2022/05/06 10:22:04;;;;;;;15.80;14.20;;;;;;;;;;5057330;28;20209;-64
2022/05/06 10:24:43;;;;;;;16.90;15.10;;;;;;;;;;5071337;28;20204;-64
2022/05/06 10:33:18;;;;;;;14.93;13.43;;;;;;;;;;5078872;28;20224;-64
2022/05/06 10:35:47;;;;;;;15.85;14.18;;;;;;;;;;5057835;28;20220;-65
2022/05/06 10:38:19;;;;;;;17.75;14.50;;;;;;;;;;5059448;28;20248;-63
2022/05/06 10:40:56;;;;;;;17.02;15.38;;;;;;;;;;5058100;28;20204;-64
2022/05/06 10:43:45;;;;;;;16.00;14.27;;;;;;;;;;5056142;28;20693;-64
2022/05/06 10:46:29;;;;;;;17.35;13.98;;;;;;;;;;5054856;28;20205;-64
2022/05/06 10:49:18;;;;;;;17.85;14.90;;;;;;;;;;5070162;28;20270;-64
2022/05/06 10:51:45;;;;;;;15.85;14.15;;;;;;;;;;5076317;28;20197;-64
2022/05/06 10:54:15;;;;;;;18.05;15.77;;;;;;;;;;5059316;28;20212;-65
2022/05/06 10:56:44;;;;;;;16.05;14.35;;;;;;;;;;5061208;28;20232;-64
2022/05/06 10:59:12;;;;;;;16.50;14.80;;;;;;;;;;5063297;28;20241;-65
2022/05/06 11:01:39;;;;;;;16.58;14.85;;;;;;;;;;5057035;28;20270;-64
2022/05/06 11:04:07;;;;;;;16.95;15.27;;;;;;;;;;5061310;28;20564;-63
2022/05/06 11:06:34;;;;;;;16.85;15.07;;;;;;;;;;5054642;28;20205;-65
2022/05/06 11:09:01;;;;;;;17.30;15.55;;;;;;;;;;5059770;28;20216;-64
2022/05/06 11:11:33;;;;;;;16.17;14.48;;;;;;;;;;5074557;28;20282;-64
2022/05/06 11:14:20;;;;;;;15.57;14.05;;;;;;;;;;5057489;28;20212;-64
2022/05/06 11:16:53;;;;;;;17.90;14.95;;;;;;;;;;5064717;28;20228;-65
2022/05/06 11:19:36;;;;;;;16.02;14.38;;;;;;;;;;5063568;28;20558;-64
2022/05/06 11:22:07;;;;;;;16.40;14.80;;;;;;;;;;5053900;28;20213;-64
2022/05/06 11:24:34;;;;;;;16.35;14.65;;;;;;;;;;5055462;28;20205;-64
2022/05/06 11:27:15;;;;;;;16.90;15.20;;;;;;;;;;5076193;28;20228;-64
2022/05/06 11:29:59;;;;;;;24.60;15.02;;;;;;;;;;5059018;28;20320;-65
2022/05/06 11:32:27;;;;;;;16.47;14.77;;;;;;;;;;5077613;28;20209;-65
2022/05/06 11:34:56;;;;;;;15.73;14.13;;;;;;;;;;5067387;28;20262;-62
2022/05/06 11:37:26;;;;;;;17.08;15.27;;;;;;;;;;5061423;28;20350;-64
2022/05/06 11:42:41;;;;;;;15.57;14.07;;;;;;;;;;5082668;28;20369;-64
2022/05/06 11:48:08;;;;;;;18.25;15.00;;;;;;;;;;5085604;28;20274;-65
2022/05/06 11:50:37;;;;;;;15.97;13.83;;;;;;;;;;5060251;28;20630;-63
2022/05/06 11:53:08;;;;;;;15.83;14.23;;;;;;;;;;5076685;28;20749;-63
2022/05/06 11:55:36;;;;;;;15.20;13.70;;;;;;;;;;5062771;28;20235;-66
2022/05/06 11:58:07;;;;;;;15.70;13.90;;;;;;;;;;5055992;28;20228;-65
2022/05/06 12:00:34;;;;;;;15.98;14.30;;;;;;;;;;5070007;28;20247;-65
2022/05/06 12:03:04;;;;;;;16.35;13.48;;;;;;;;;;5060434;28;20231;-65
2022/05/06 12:05:32;;;;;;;15.20;13.73;;;;;;;;;;5064165;28;20310;-65
2022/05/06 12:07:59;;;;;;;15.87;14.20;;;;;;;;;;5063662;28;20237;-65
2022/05/06 12:10:28;;;;;;;17.92;13.95;;;;;;;;;;5063878;28;20242;-65
2022/05/06 12:12:56;;;;;;;17.80;13.85;;;;;;;;;;5059172;28;20213;-65
2022/05/06 12:15:34;;;;;;;14.50;13.10;;;;;;;;;;5065890;28;20302;-65
2022/05/06 12:18:11;;;;;;;16.10;13.75;;;;;;;;;;5066671;28;20221;-65
2022/05/06 12:20:42;;;;;;;14.48;13.02;;;;;;;;;;5065822;28;20201;-66
2022/05/06 12:23:10;;;;;;;14.60;13.10;;;;;;;;;;5063097;28;20209;-65
2022/05/06 12:25:41;;;;;;;13.80;12.50;;;;;;;;;;5072236;28;20224;-65
2022/05/06 12:28:09;;;;;;;12.55;11.27;;;;;;;;;;5084503;28;20231;-65
2022/05/06 12:30:39;;;;;;;16.65;12.02;;;;;;;;;;5078577;28;20204;-65
2022/05/06 12:33:07;;;;;;;13.52;12.13;;;;;;;;;;5063870;28;20224;-65
2022/05/06 12:35:54;;;;;;;13.23;11.88;;;;;;;;;;5064656;28;20220;-65
2022/05/06 12:38:22;;;;;;;15.55;12.43;;;;;;;;;;5078362;28;20235;-63
2022/05/06 12:40:50;;;;;;;12.65;11.48;;;;;;;;;;5064653;28;20208;-65
2022/05/06 12:43:25;;;;;;;15.13;12.52;;;;;;;;;;5057059;28;20282;-63
2022/05/06 12:45:59;;;;;;;13.73;11.45;;;;;;;;;;5075228;28;20301;-65
2022/05/06 12:51:12;;;;;;;11.73;10.63;;;;;;;;;;5080487;28;20728;-66
2022/05/06 12:53:39;;;;;;;13.18;11.48;;;;;;;;;;5079169;28;20653;-66
2022/05/06 12:56:17;;;;;;;12.90;11.60;;;;;;;;;;5063914;28;20240;-66
2022/05/06 12:58:45;;;;;;;11.93;10.68;;;;;;;;;;5061170;28;20286;-66
2022/05/06 13:01:13;;;;;;;13.02;11.52;;;;;;;;;;5062524;28;20201;-66
2022/05/06 13:03:42;;;;;;;11.85;10.75;;;;;;;;;;5061922;28;20225;-64
2022/05/06 13:06:10;;;;;;;11.70;10.50;;;;;;;;;;5062854;28;20200;-65
2022/05/06 13:08:37;;;;;;;16.50;11.02;;;;;;;;;;5066363;28;20228;-66
2022/05/06 13:11:05;;;;;;;12.95;11.20;;;;;;;;;;5063652;28;20456;-66
2022/05/06 13:13:32;;;;;;;12.30;10.57;;;;;;;;;;5067361;28;20205;-64
2022/05/06 13:16:00;;;;;;;12.25;10.90;;;;;;;;;;5059597;28;20224;-67
2022/05/06 13:18:30;;;;;;;13.07;10.50;;;;;;;;;;5074916;28;20224;-67
2022/05/06 13:20:57;;;;;;;11.90;10.70;;;;;;;;;;5054016;28;20194;-65
2022/05/06 13:23:25;;;;;;;12.20;10.98;;;;;;;;;;5051616;28;20205;-65
2022/05/06 13:25:53;;;;;;;13.00;10.25;;;;;;;;;;5071740;28;20220;-66
2022/05/06 13:28:21;;;;;;;11.45;10.25;;;;;;;;;;5085676;28;20232;-67
2022/05/06 13:30:48;;;;;;;12.13;10.77;;;;;;;;;;5060754;28;20209;-64
2022/05/06 13:33:16;;;;;;;14.93;10.55;;;;;;;;;;5078539;28;20211;-64
2022/05/06 13:35:44;;;;;;;11.68;9.80;;;;;;;;;;5058813;28;20233;-65
2022/05/06 13:38:11;;;;;;;11.50;10.40;;;;;;;;;;5062350;28;20217;-66
2022/05/06 13:40:39;;;;;;;12.65;10.60;;;;;;;;;;5057451;28;20204;-65
2022/05/06 13:43:06;;;;;;;11.45;10.07;;;;;;;;;;5060065;28;20654;-66
2022/05/06 13:45:34;;;;;;;13.50;10.25;;;;;;;;;;5070621;28;20258;-66
2022/05/06 13:48:02;;;;;;;10.43;9.32;;;;;;;;;;5062719;28;20213;-66
2022/05/06 13:50:29;;;;;;;11.30;10.10;;;;;;;;;;5060492;28;20197;-64
2022/05/06 13:52:56;;;;;;;12.13;9.88;;;;;;;;;;5077369;28;20262;-66
2022/05/06 13:59:04;;;;;;;12.15;10.43;;;;;;;;;;5062984;28;21861;-66
2022/05/06 14:01:00;;;;;;;12.20;10.30;;;;;;;;;;5076798;28;21795;-66
2022/05/06 14:03:28;;;;;;;12.02;9.10;;;;;;;;;;5061865;28;20220;-67
2022/05/06 14:05:55;;;;;;;11.52;9.93;;;;;;;;;;5057661;28;20656;-67
2022/05/06 14:08:23;;;;;;;13.02;9.55;;;;;;;;;;5064082;28;20767;-67
2022/05/06 14:10:50;;;;;;;12.05;9.77;;;;;;;;;;5065282;28;20254;-66
2022/05/06 14:13:17;;;;;;;11.43;8.88;;;;;;;;;;5060589;28;20201;-66
2022/05/06 14:15:45;;;;;;;10.93;9.65;;;;;;;;;;5058743;28;20201;-66
2022/05/06 14:18:12;;;;;;;13.95;9.85;;;;;;;;;;5060648;28;20599;-66
2022/05/06 14:20:40;;;;;;;14.07;9.75;;;;;;;;;;5056698;28;20205;-65
2022/05/06 14:23:08;;;;;;;11.55;9.32;;;;;;;;;;5056443;28;20564;-67
2022/05/06 14:25:37;;;;;;;10.80;9.48;;;;;;;;;;5078803;28;20928;-66
2022/05/06 14:28:04;;;;;;;11.27;9.55;;;;;;;;;;5059566;28;20312;-65
2022/05/06 14:30:32;;;;;;;12.43;9.43;;;;;;;;;;5063672;28;20197;-65
2022/05/06 14:33:01;;;;;;;10.75;9.55;;;;;;;;;;5050851;28;20206;-64
2022/05/06 14:35:28;;;;;;;11.07;9.55;;;;;;;;;;5047687;28;20246;-65
2022/05/06 14:37:58;;;;;;;11.20;9.38;;;;;;;;;;5053357;28;20233;-67
2022/05/06 14:40:25;;;;;;;10.55;8.77;;;;;;;;;;5058087;28;20204;-65
2022/05/06 14:42:52;;;;;;;16.17;9.47;;;;;;;;;;5055406;28;20210;-66
2022/05/06 14:45:20;;;;;;;12.23;10.10;;;;;;;;;;5060614;28;20204;-66
2022/05/06 14:47:47;;;;;;;12.00;9.80;;;;;;;;;;5059212;28;20232;-64
2022/05/06 14:50:15;;;;;;;12.82;10.18;;;;;;;;;;5066471;28;20205;-65
2022/05/06 14:52:43;;;;;;;12.73;9.73;;;;;;;;;;5064380;28;20536;-66
2022/05/06 14:55:10;;;;;;;11.15;9.30;;;;;;;;;;5062633;28;20205;-65
2022/05/06 14:57:38;;;;;;;12.48;10.13;;;;;;;;;;5056899;28;20285;-66
2022/05/06 15:00:07;;;;;;;14.13;9.40;;;;;;;;;;5064809;28;20232;-65
2022/05/06 15:02:35;;;;;;;11.43;9.15;;;;;;;;;;5058978;28;20269;-65
2022/05/06 15:05:03;;;;;;;12.02;9.05;;;;;;;;;;5065460;28;20209;-65
2022/05/06 15:07:32;;;;;;;10.27;9.18;;;;;;;;;;5070320;28;20231;-66
2022/05/06 15:10:00;;;;;;;9.93;8.40;;;;;;;;;;5067850;28;20646;-66
2022/05/06 15:12:27;;;;;;;10.45;8.90;;;;;;;;;;5070860;28;20773;-65
2022/05/06 15:14:54;;;;;;;11.27;9.45;;;;;;;;;;5062176;28;20210;-65
2022/05/06 15:17:22;;;;;;;10.38;8.90;;;;;;;;;;5063228;28;20245;-65
2022/05/06 15:19:50;;;;;;;10.35;8.52;;;;;;;;;;5059864;28;20205;-67